sensor_id;sensor_type;location;lat;lon;timestamp;temperature;humidity
7600;DHT22;3841;49.442;11.126;2022-08-19T00:00:35;19.80;99.90
7600;DHT22;3841;49.442;11.126;2022-08-19T00:03:01;19.80;99.90
7600;DHT22;3841;49.442;11.126;2022-08-19T00:05:28;19.80;99.90
7600;DHT22;3841;49.442;11.126;2022-08-19T00:07:55;19.80;99.90
7600;DHT22;3841;49.442;11.126;2022-08-19T00:10:22;19.80;99.90
7600;DHT22;3841;49.442;11.126;2022-08-19T00:12:51;19.80;99.90
7600;DHT22;3841;49.442;11.126;2022-08-19T00:15:18;19.80;99.90
7600;DHT22;3841;49.442;11.126;2022-08-19T00:17:46;19.80;99.90
7600;DHT22;3841;49.442;11.126;2022-08-19T00:20:14;19.80;99.90
7600;DHT22;3841;49.442;11.126;2022-08-19T00:22:43;19.80;99.90
7600;DHT22;3841;49.442;11.126;2022-08-19T00:25:10;19.80;99.90
7600;DHT22;3841;49.442;11.126;2022-08-19T00:27:37;19.80;99.90
7600;DHT22;3841;49.442;11.126;2022-08-19T00:30:06;19.80;99.90
7600;DHT22;3841;49.442;11.126;2022-08-19T00:32:35;19.80;99.90
7600;DHT22;3841;49.442;11.126;2022-08-19T00:35:02;19.80;99.90
7600;DHT22;3841;49.442;11.126;2022-08-19T00:37:29;19.80;99.90
7600;DHT22;3841;49.442;11.126;2022-08-19T00:39:56;19.90;99.90
7600;DHT22;3841;49.442;11.126;2022-08-19T00:42:22;19.90;99.90
7600;DHT22;3841;49.442;11.126;2022-08-19T00:44:51;19.90;99.90
7600;DHT22;3841;49.442;11.126;2022-08-19T00:47:19;19.90;99.90
7600;DHT22;3841;49.442;11.126;2022-08-19T00:49:46;19.90;99.90
7600;DHT22;3841;49.442;11.126;2022-08-19T00:52:17;19.90;99.90
7600;DHT22;3841;49.442;11.126;2022-08-19T00:54:44;19.90;99.90
7600;DHT22;3841;49.442;11.126;2022-08-19T00:57:14;19.90;99.90
7600;DHT22;3841;49.442;11.126;2022-08-19T00:59:42;20.00;99.90
7600;DHT22;3841;49.442;11.126;2022-08-19T01:02:11;19.90;99.90
7600;DHT22;3841;49.442;11.126;2022-08-19T01:04:39;20.00;99.90
7600;DHT22;3841;49.442;11.126;2022-08-19T01:07:05;20.00;99.90
7600;DHT22;3841;49.442;11.126;2022-08-19T01:09:32;20.00;99.90
7600;DHT22;3841;49.442;11.126;2022-08-19T01:11:59;20.00;99.90
7600;DHT22;3841;49.442;11.126;2022-08-19T01:14:26;20.00;99.90
7600;DHT22;3841;49.442;11.126;2022-08-19T01:16:52;20.00;99.90
7600;DHT22;3841;49.442;11.126;2022-08-19T01:19:23;20.00;99.90
7600;DHT22;3841;49.442;11.126;2022-08-19T01:21:54;20.00;99.90
7600;DHT22;3841;49.442;11.126;2022-08-19T01:24:23;19.90;99.90
7600;DHT22;3841;49.442;11.126;2022-08-19T01:26:51;19.90;99.90
7600;DHT22;3841;49.442;11.126;2022-08-19T01:29:18;19.80;99.90
7600;DHT22;3841;49.442;11.126;2022-08-19T01:31:44;19.80;99.90
7600;DHT22;3841;49.442;11.126;2022-08-19T01:34:12;19.80;99.90
7600;DHT22;3841;49.442;11.126;2022-08-19T01:36:40;19.70;99.90
7600;DHT22;3841;49.442;11.126;2022-08-19T01:39:09;19.70;99.90
7600;DHT22;3841;49.442;11.126;2022-08-19T01:41:37;19.70;99.90
7600;DHT22;3841;49.442;11.126;2022-08-19T01:44:05;19.80;99.90
7600;DHT22;3841;49.442;11.126;2022-08-19T01:46:31;19.80;99.90
7600;DHT22;3841;49.442;11.126;2022-08-19T01:48:58;19.80;99.90
7600;DHT22;3841;49.442;11.126;2022-08-19T01:51:25;19.80;99.90
7600;DHT22;3841;49.442;11.126;2022-08-19T01:53:53;19.80;99.90
7600;DHT22;3841;49.442;11.126;2022-08-19T01:56:20;19.80;99.90
7600;DHT22;3841;49.442;11.126;2022-08-19T01:58:57;19.80;99.90
7600;DHT22;3841;49.442;11.126;2022-08-19T02:01:26;19.80;99.90
7600;DHT22;3841;49.442;11.126;2022-08-19T02:03:53;19.80;99.90
7600;DHT22;3841;49.442;11.126;2022-08-19T02:06:20;19.80;99.90
7600;DHT22;3841;49.442;11.126;2022-08-19T02:08:47;19.80;99.90
7600;DHT22;3841;49.442;11.126;2022-08-19T02:11:18;19.70;99.90
7600;DHT22;3841;49.442;11.126;2022-08-19T02:13:45;19.70;99.90
7600;DHT22;3841;49.442;11.126;2022-08-19T02:16:13;19.60;99.90
7600;DHT22;3841;49.442;11.126;2022-08-19T02:18:39;19.50;99.90
7600;DHT22;3841;49.442;11.126;2022-08-19T02:21:06;19.50;99.90
7600;DHT22;3841;49.442;11.126;2022-08-19T02:23:33;19.50;99.90
7600;DHT22;3841;49.442;11.126;2022-08-19T02:25:59;19.60;99.90
7600;DHT22;3841;49.442;11.126;2022-08-19T02:28:26;19.60;99.90
7600;DHT22;3841;49.442;11.126;2022-08-19T02:30:52;19.60;99.90
7600;DHT22;3841;49.442;11.126;2022-08-19T02:33:20;19.60;99.90
7600;DHT22;3841;49.442;11.126;2022-08-19T02:35:47;19.60;99.90
7600;DHT22;3841;49.442;11.126;2022-08-19T02:38:14;19.60;99.90
7600;DHT22;3841;49.442;11.126;2022-08-19T02:40:52;19.60;99.90
7600;DHT22;3841;49.442;11.126;2022-08-19T02:43:19;19.60;99.90
7600;DHT22;3841;49.442;11.126;2022-08-19T02:45:46;19.60;99.90
7600;DHT22;3841;49.442;11.126;2022-08-19T02:48:14;19.60;99.90
7600;DHT22;3841;49.442;11.126;2022-08-19T02:50:43;19.60;99.90
7600;DHT22;3841;49.442;11.126;2022-08-19T02:53:09;19.50;99.90
7600;DHT22;3841;49.442;11.126;2022-08-19T02:55:37;19.60;99.90
7600;DHT22;3841;49.442;11.126;2022-08-19T02:58:08;19.60;99.90
7600;DHT22;3841;49.442;11.126;2022-08-19T03:00:35;19.70;99.90
7600;DHT22;3841;49.442;11.126;2022-08-19T03:03:02;19.60;99.90
7600;DHT22;3841;49.442;11.126;2022-08-19T03:05:28;19.60;99.90
7600;DHT22;3841;49.442;11.126;2022-08-19T03:07:57;19.60;99.90
7600;DHT22;3841;49.442;11.126;2022-08-19T03:10:24;19.50;99.90
7600;DHT22;3841;49.442;11.126;2022-08-19T03:12:50;19.50;99.90
7600;DHT22;3841;49.442;11.126;2022-08-19T03:15:17;19.50;99.90
7600;DHT22;3841;49.442;11.126;2022-08-19T03:17:44;19.50;99.90
7600;DHT22;3841;49.442;11.126;2022-08-19T03:20:11;19.40;99.90
7600;DHT22;3841;49.442;11.126;2022-08-19T03:22:37;19.40;99.90
7600;DHT22;3841;49.442;11.126;2022-08-19T03:25:06;19.40;99.90
7600;DHT22;3841;49.442;11.126;2022-08-19T03:27:32;19.40;99.90
7600;DHT22;3841;49.442;11.126;2022-08-19T03:29:59;19.40;99.90
7600;DHT22;3841;49.442;11.126;2022-08-19T03:32:26;19.40;99.90
7600;DHT22;3841;49.442;11.126;2022-08-19T03:34:52;19.30;99.90
7600;DHT22;3841;49.442;11.126;2022-08-19T03:37:19;19.30;99.90
7600;DHT22;3841;49.442;11.126;2022-08-19T03:39:46;19.30;99.90
7600;DHT22;3841;49.442;11.126;2022-08-19T03:42:14;19.30;99.90
7600;DHT22;3841;49.442;11.126;2022-08-19T03:44:42;19.30;99.90
7600;DHT22;3841;49.442;11.126;2022-08-19T03:47:10;19.30;99.90
7600;DHT22;3841;49.442;11.126;2022-08-19T03:49:40;19.20;99.90
7600;DHT22;3841;49.442;11.126;2022-08-19T03:52:07;19.20;99.90
7600;DHT22;3841;49.442;11.126;2022-08-19T03:54:34;19.20;99.90
7600;DHT22;3841;49.442;11.126;2022-08-19T03:57:01;19.20;99.90
7600;DHT22;3841;49.442;11.126;2022-08-19T03:59:30;19.20;99.90
7600;DHT22;3841;49.442;11.126;2022-08-19T04:01:58;19.20;99.90
7600;DHT22;3841;49.442;11.126;2022-08-19T04:04:26;19.20;99.90
7600;DHT22;3841;49.442;11.126;2022-08-19T04:06:53;19.20;99.90
7600;DHT22;3841;49.442;11.126;2022-08-19T04:09:20;19.20;99.90
7600;DHT22;3841;49.442;11.126;2022-08-19T04:11:48;19.20;99.90
7600;DHT22;3841;49.442;11.126;2022-08-19T04:14:16;19.20;99.90
7600;DHT22;3841;49.442;11.126;2022-08-19T04:16:45;19.20;99.90
7600;DHT22;3841;49.442;11.126;2022-08-19T04:19:12;19.30;99.90
7600;DHT22;3841;49.442;11.126;2022-08-19T04:21:39;19.30;99.90
7600;DHT22;3841;49.442;11.126;2022-08-19T04:24:06;19.30;99.90
7600;DHT22;3841;49.442;11.126;2022-08-19T04:26:34;19.30;99.90
7600;DHT22;3841;49.442;11.126;2022-08-19T04:29:03;19.30;99.90
7600;DHT22;3841;49.442;11.126;2022-08-19T04:31:31;19.30;99.90
7600;DHT22;3841;49.442;11.126;2022-08-19T04:34:03;19.30;99.90
7600;DHT22;3841;49.442;11.126;2022-08-19T04:36:30;19.40;99.90
7600;DHT22;3841;49.442;11.126;2022-08-19T04:38:58;19.30;99.90
7600;DHT22;3841;49.442;11.126;2022-08-19T04:41:26;19.30;99.90
7600;DHT22;3841;49.442;11.126;2022-08-19T04:44:10;19.30;99.90
7600;DHT22;3841;49.442;11.126;2022-08-19T04:46:38;19.30;99.90
7600;DHT22;3841;49.442;11.126;2022-08-19T04:49:07;19.40;99.90
7600;DHT22;3841;49.442;11.126;2022-08-19T04:51:34;19.30;99.90
7600;DHT22;3841;49.442;11.126;2022-08-19T04:54:02;19.30;99.90
7600;DHT22;3841;49.442;11.126;2022-08-19T04:56:29;19.30;99.90
7600;DHT22;3841;49.442;11.126;2022-08-19T04:58:56;19.30;99.90
7600;DHT22;3841;49.442;11.126;2022-08-19T05:01:23;19.30;99.90
7600;DHT22;3841;49.442;11.126;2022-08-19T05:03:50;19.40;99.90
7600;DHT22;3841;49.442;11.126;2022-08-19T05:06:20;19.40;99.90
7600;DHT22;3841;49.442;11.126;2022-08-19T05:08:47;19.30;99.90
7600;DHT22;3841;49.442;11.126;2022-08-19T05:11:15;19.40;99.90
7600;DHT22;3841;49.442;11.126;2022-08-19T05:13:41;19.40;99.90
7600;DHT22;3841;49.442;11.126;2022-08-19T05:16:08;19.50;99.90
7600;DHT22;3841;49.442;11.126;2022-08-19T05:18:35;19.50;99.90
7600;DHT22;3841;49.442;11.126;2022-08-19T05:21:22;19.60;99.90
7600;DHT22;3841;49.442;11.126;2022-08-19T05:24:06;19.70;99.90
7600;DHT22;3841;49.442;11.126;2022-08-19T05:26:34;19.70;99.90
7600;DHT22;3841;49.442;11.126;2022-08-19T05:29:01;19.80;99.90
7600;DHT22;3841;49.442;11.126;2022-08-19T05:31:27;19.90;99.90
7600;DHT22;3841;49.442;11.126;2022-08-19T05:33:54;20.00;99.90
7600;DHT22;3841;49.442;11.126;2022-08-19T05:36:25;20.10;99.90
7600;DHT22;3841;49.442;11.126;2022-08-19T05:38:52;20.10;99.90
7600;DHT22;3841;49.442;11.126;2022-08-19T05:41:19;20.20;99.90
7600;DHT22;3841;49.442;11.126;2022-08-19T05:43:46;20.10;99.90
7600;DHT22;3841;49.442;11.126;2022-08-19T05:46:16;20.10;99.90
7600;DHT22;3841;49.442;11.126;2022-08-19T05:48:43;20.10;99.90
7600;DHT22;3841;49.442;11.126;2022-08-19T05:51:10;20.10;99.90
7600;DHT22;3841;49.442;11.126;2022-08-19T05:53:38;20.10;99.90
7600;DHT22;3841;49.442;11.126;2022-08-19T05:56:05;20.20;99.90
7600;DHT22;3841;49.442;11.126;2022-08-19T05:58:32;20.20;99.90
7600;DHT22;3841;49.442;11.126;2022-08-19T06:00:58;20.20;99.90
7600;DHT22;3841;49.442;11.126;2022-08-19T06:03:32;20.20;99.90
7600;DHT22;3841;49.442;11.126;2022-08-19T06:05:59;20.30;99.90
7600;DHT22;3841;49.442;11.126;2022-08-19T06:08:28;20.40;99.90
7600;DHT22;3841;49.442;11.126;2022-08-19T06:10:56;20.30;99.90
7600;DHT22;3841;49.442;11.126;2022-08-19T06:13:22;20.40;99.90
7600;DHT22;3841;49.442;11.126;2022-08-19T06:15:50;20.40;99.90
7600;DHT22;3841;49.442;11.126;2022-08-19T06:18:17;20.40;99.90
7600;DHT22;3841;49.442;11.126;2022-08-19T06:20:44;20.40;99.90
7600;DHT22;3841;49.442;11.126;2022-08-19T06:23:11;20.40;99.90
7600;DHT22;3841;49.442;11.126;2022-08-19T06:25:38;20.40;99.90
7600;DHT22;3841;49.442;11.126;2022-08-19T06:28:07;20.50;99.90
7600;DHT22;3841;49.442;11.126;2022-08-19T06:30:33;20.70;99.90
7600;DHT22;3841;49.442;11.126;2022-08-19T06:33:00;20.80;99.90
7600;DHT22;3841;49.442;11.126;2022-08-19T06:35:27;21.00;99.90
7600;DHT22;3841;49.442;11.126;2022-08-19T06:37:54;21.10;99.90
7600;DHT22;3841;49.442;11.126;2022-08-19T06:40:21;21.30;99.90
7600;DHT22;3841;49.442;11.126;2022-08-19T06:42:52;21.30;99.90
7600;DHT22;3841;49.442;11.126;2022-08-19T06:45:20;21.40;99.90
7600;DHT22;3841;49.442;11.126;2022-08-19T06:47:47;21.40;99.90
7600;DHT22;3841;49.442;11.126;2022-08-19T06:50:14;21.30;99.90
7600;DHT22;3841;49.442;11.126;2022-08-19T06:52:40;21.40;99.90
7600;DHT22;3841;49.442;11.126;2022-08-19T06:55:07;21.30;99.90
7600;DHT22;3841;49.442;11.126;2022-08-19T06:57:34;21.20;99.90
7600;DHT22;3841;49.442;11.126;2022-08-19T07:00:01;21.20;99.90
7600;DHT22;3841;49.442;11.126;2022-08-19T07:02:29;21.10;99.90
7600;DHT22;3841;49.442;11.126;2022-08-19T07:04:56;21.00;99.90
7600;DHT22;3841;49.442;11.126;2022-08-19T07:07:23;20.90;99.90
7600;DHT22;3841;49.442;11.126;2022-08-19T07:09:50;20.80;99.90
7600;DHT22;3841;49.442;11.126;2022-08-19T07:12:18;20.80;99.90
7600;DHT22;3841;49.442;11.126;2022-08-19T07:14:45;20.80;99.90
7600;DHT22;3841;49.442;11.126;2022-08-19T07:17:12;20.80;99.90
7600;DHT22;3841;49.442;11.126;2022-08-19T07:19:41;20.80;99.90
7600;DHT22;3841;49.442;11.126;2022-08-19T07:22:08;20.80;99.90
7600;DHT22;3841;49.442;11.126;2022-08-19T07:24:35;20.70;99.90
7600;DHT22;3841;49.442;11.126;2022-08-19T07:27:03;20.70;99.90
7600;DHT22;3841;49.442;11.126;2022-08-19T07:29:31;20.60;99.90
7600;DHT22;3841;49.442;11.126;2022-08-19T07:31:58;20.60;99.90
7600;DHT22;3841;49.442;11.126;2022-08-19T07:34:26;20.60;99.90
7600;DHT22;3841;49.442;11.126;2022-08-19T07:36:54;20.50;99.90
7600;DHT22;3841;49.442;11.126;2022-08-19T07:39:22;20.50;99.90
7600;DHT22;3841;49.442;11.126;2022-08-19T07:41:49;20.50;99.90
7600;DHT22;3841;49.442;11.126;2022-08-19T07:44:16;20.50;99.90
7600;DHT22;3841;49.442;11.126;2022-08-19T07:46:44;20.60;99.90
7600;DHT22;3841;49.442;11.126;2022-08-19T07:49:11;20.60;99.90
7600;DHT22;3841;49.442;11.126;2022-08-19T07:51:42;20.70;99.90
7600;DHT22;3841;49.442;11.126;2022-08-19T07:54:10;20.70;99.90
7600;DHT22;3841;49.442;11.126;2022-08-19T07:56:37;20.70;99.90
7600;DHT22;3841;49.442;11.126;2022-08-19T07:59:04;20.80;99.90
7600;DHT22;3841;49.442;11.126;2022-08-19T08:01:31;20.80;99.90
7600;DHT22;3841;49.442;11.126;2022-08-19T08:03:58;20.70;99.90
7600;DHT22;3841;49.442;11.126;2022-08-19T08:06:42;20.60;99.90
7600;DHT22;3841;49.442;11.126;2022-08-19T08:09:29;20.50;99.90
7600;DHT22;3841;49.442;11.126;2022-08-19T08:11:57;20.50;99.90
7600;DHT22;3841;49.442;11.126;2022-08-19T08:14:24;20.50;99.90
7600;DHT22;3841;49.442;11.126;2022-08-19T08:16:51;20.50;99.90
7600;DHT22;3841;49.442;11.126;2022-08-19T08:19:19;20.50;99.90
7600;DHT22;3841;49.442;11.126;2022-08-19T08:21:46;20.50;99.90
7600;DHT22;3841;49.442;11.126;2022-08-19T08:24:13;20.50;99.90
7600;DHT22;3841;49.442;11.126;2022-08-19T08:26:41;20.50;99.90
7600;DHT22;3841;49.442;11.126;2022-08-19T08:29:09;20.50;99.90
7600;DHT22;3841;49.442;11.126;2022-08-19T08:31:39;20.60;99.90
7600;DHT22;3841;49.442;11.126;2022-08-19T08:34:06;20.80;99.90
7600;DHT22;3841;49.442;11.126;2022-08-19T08:36:35;20.90;99.90
7600;DHT22;3841;49.442;11.126;2022-08-19T08:39:05;21.10;99.90
7600;DHT22;3841;49.442;11.126;2022-08-19T08:41:34;21.30;99.90
7600;DHT22;3841;49.442;11.126;2022-08-19T08:44:04;21.40;99.90
7600;DHT22;3841;49.442;11.126;2022-08-19T08:46:34;21.50;99.90
7600;DHT22;3841;49.442;11.126;2022-08-19T08:49:04;21.60;99.90
7600;DHT22;3841;49.442;11.126;2022-08-19T08:51:33;21.60;99.90
7600;DHT22;3841;49.442;11.126;2022-08-19T08:54:00;21.40;99.90
7600;DHT22;3841;49.442;11.126;2022-08-19T08:56:27;21.20;99.90
7600;DHT22;3841;49.442;11.126;2022-08-19T08:58:57;21.10;99.90
7600;DHT22;3841;49.442;11.126;2022-08-19T09:01:26;21.10;99.90
7600;DHT22;3841;49.442;11.126;2022-08-19T09:03:53;21.20;99.90
7600;DHT22;3841;49.442;11.126;2022-08-19T09:06:22;21.20;99.90
7600;DHT22;3841;49.442;11.126;2022-08-19T09:08:53;21.20;99.90
7600;DHT22;3841;49.442;11.126;2022-08-19T09:11:25;21.20;99.90
7600;DHT22;3841;49.442;11.126;2022-08-19T09:14:01;21.20;99.90
7600;DHT22;3841;49.442;11.126;2022-08-19T09:16:30;21.10;99.90
7600;DHT22;3841;49.442;11.126;2022-08-19T09:19:01;20.90;99.90
7600;DHT22;3841;49.442;11.126;2022-08-19T09:21:28;20.80;99.90
7600;DHT22;3841;49.442;11.126;2022-08-19T09:23:55;20.80;99.90
7600;DHT22;3841;49.442;11.126;2022-08-19T09:26:23;20.80;99.90
7600;DHT22;3841;49.442;11.126;2022-08-19T09:28:51;20.90;99.90
7600;DHT22;3841;49.442;11.126;2022-08-19T09:31:21;20.90;99.90
7600;DHT22;3841;49.442;11.126;2022-08-19T09:33:49;20.90;99.90
7600;DHT22;3841;49.442;11.126;2022-08-19T09:36:16;20.90;99.90
7600;DHT22;3841;49.442;11.126;2022-08-19T09:38:43;20.90;99.90
7600;DHT22;3841;49.442;11.126;2022-08-19T09:41:11;20.80;99.90
7600;DHT22;3841;49.442;11.126;2022-08-19T09:43:38;20.70;99.90
7600;DHT22;3841;49.442;11.126;2022-08-19T09:46:11;20.70;99.90
7600;DHT22;3841;49.442;11.126;2022-08-19T09:48:38;20.60;99.90
7600;DHT22;3841;49.442;11.126;2022-08-19T09:51:07;20.60;99.90
7600;DHT22;3841;49.442;11.126;2022-08-19T09:53:34;20.50;99.90
7600;DHT22;3841;49.442;11.126;2022-08-19T09:56:00;20.50;99.90
7600;DHT22;3841;49.442;11.126;2022-08-19T09:58:27;20.60;99.90
7600;DHT22;3841;49.442;11.126;2022-08-19T10:00:55;20.60;99.90
7600;DHT22;3841;49.442;11.126;2022-08-19T10:03:22;20.70;99.90
7600;DHT22;3841;49.442;11.126;2022-08-19T10:05:49;20.70;99.90
7600;DHT22;3841;49.442;11.126;2022-08-19T10:08:19;20.70;99.90
7600;DHT22;3841;49.442;11.126;2022-08-19T10:10:47;20.70;99.90
7600;DHT22;3841;49.442;11.126;2022-08-19T10:13:14;20.70;99.90
7600;DHT22;3841;49.442;11.126;2022-08-19T10:15:41;20.70;99.90
7600;DHT22;3841;49.442;11.126;2022-08-19T10:18:08;20.70;99.90
7600;DHT22;3841;49.442;11.126;2022-08-19T10:20:35;20.60;99.90
7600;DHT22;3841;49.442;11.126;2022-08-19T10:23:06;20.60;99.90
7600;DHT22;3841;49.442;11.126;2022-08-19T10:25:34;20.70;99.90
7600;DHT22;3841;49.442;11.126;2022-08-19T10:28:01;20.70;99.90
7600;DHT22;3841;49.442;11.126;2022-08-19T10:30:28;20.70;99.90
7600;DHT22;3841;49.442;11.126;2022-08-19T10:32:55;20.70;99.90
7600;DHT22;3841;49.442;11.126;2022-08-19T10:35:21;20.70;99.90
7600;DHT22;3841;49.442;11.126;2022-08-19T10:37:51;20.80;99.90
7600;DHT22;3841;49.442;11.126;2022-08-19T10:40:18;20.80;99.90
7600;DHT22;3841;49.442;11.126;2022-08-19T10:42:46;20.70;99.90
7600;DHT22;3841;49.442;11.126;2022-08-19T10:45:13;20.80;99.90
7600;DHT22;3841;49.442;11.126;2022-08-19T10:47:39;20.70;99.90
7600;DHT22;3841;49.442;11.126;2022-08-19T10:50:06;20.80;99.90
7600;DHT22;3841;49.442;11.126;2022-08-19T10:52:51;20.80;99.90
7600;DHT22;3841;49.442;11.126;2022-08-19T10:55:18;20.70;99.90
7600;DHT22;3841;49.442;11.126;2022-08-19T10:58:06;20.80;99.90
7600;DHT22;3841;49.442;11.126;2022-08-19T11:00:35;20.90;99.90
7600;DHT22;3841;49.442;11.126;2022-08-19T11:03:02;20.80;99.90
7600;DHT22;3841;49.442;11.126;2022-08-19T11:05:29;20.90;99.90
7600;DHT22;3841;49.442;11.126;2022-08-19T11:07:55;20.90;99.90
7600;DHT22;3841;49.442;11.126;2022-08-19T11:10:22;21.00;99.90
7600;DHT22;3841;49.442;11.126;2022-08-19T11:12:49;20.90;99.90
7600;DHT22;3841;49.442;11.126;2022-08-19T11:15:19;20.90;99.90
7600;DHT22;3841;49.442;11.126;2022-08-19T11:17:46;20.90;99.90
7600;DHT22;3841;49.442;11.126;2022-08-19T11:20:13;21.00;99.90
7600;DHT22;3841;49.442;11.126;2022-08-19T11:22:41;21.00;99.90
7600;DHT22;3841;49.442;11.126;2022-08-19T11:25:08;21.00;99.90
7600;DHT22;3841;49.442;11.126;2022-08-19T11:27:37;20.80;99.90
7600;DHT22;3841;49.442;11.126;2022-08-19T11:30:05;20.70;99.90
7600;DHT22;3841;49.442;11.126;2022-08-19T11:32:34;20.60;99.90
7600;DHT22;3841;49.442;11.126;2022-08-19T11:35:00;20.60;99.90
7600;DHT22;3841;49.442;11.126;2022-08-19T11:37:27;20.60;99.90
7600;DHT22;3841;49.442;11.126;2022-08-19T11:39:54;20.60;99.90
7600;DHT22;3841;49.442;11.126;2022-08-19T11:42:20;20.60;99.90
7600;DHT22;3841;49.442;11.126;2022-08-19T11:45:05;20.70;99.90
7600;DHT22;3841;49.442;11.126;2022-08-19T11:47:33;20.60;99.90
7600;DHT22;3841;49.442;11.126;2022-08-19T11:50:00;20.60;99.90
7600;DHT22;3841;49.442;11.126;2022-08-19T11:52:26;20.40;99.90
7600;DHT22;3841;49.442;11.126;2022-08-19T11:54:54;20.40;99.90
7600;DHT22;3841;49.442;11.126;2022-08-19T11:57:21;20.30;99.90
7600;DHT22;3841;49.442;11.126;2022-08-19T11:59:48;20.30;99.90
7600;DHT22;3841;49.442;11.126;2022-08-19T12:02:15;20.20;99.90
7600;DHT22;3841;49.442;11.126;2022-08-19T12:04:43;20.20;99.90
7600;DHT22;3841;49.442;11.126;2022-08-19T12:07:10;20.10;99.90
7600;DHT22;3841;49.442;11.126;2022-08-19T12:09:36;20.10;99.90
7600;DHT22;3841;49.442;11.126;2022-08-19T12:12:04;20.10;99.90
7600;DHT22;3841;49.442;11.126;2022-08-19T12:14:31;20.00;99.90
7600;DHT22;3841;49.442;11.126;2022-08-19T12:16:58;20.10;99.90
7600;DHT22;3841;49.442;11.126;2022-08-19T12:19:25;20.10;99.90
7600;DHT22;3841;49.442;11.126;2022-08-19T12:21:54;20.10;99.90
7600;DHT22;3841;49.442;11.126;2022-08-19T12:24:26;20.20;99.90
7600;DHT22;3841;49.442;11.126;2022-08-19T12:26:52;20.20;99.90
7600;DHT22;3841;49.442;11.126;2022-08-19T12:29:20;20.10;99.90
7600;DHT22;3841;49.442;11.126;2022-08-19T12:31:53;20.10;99.90
7600;DHT22;3841;49.442;11.126;2022-08-19T12:34:26;20.10;99.90
7600;DHT22;3841;49.442;11.126;2022-08-19T12:36:56;20.20;99.90
7600;DHT22;3841;49.442;11.126;2022-08-19T12:39:23;20.20;99.90
7600;DHT22;3841;49.442;11.126;2022-08-19T12:41:50;20.20;99.90
7600;DHT22;3841;49.442;11.126;2022-08-19T12:44:17;20.30;99.90
7600;DHT22;3841;49.442;11.126;2022-08-19T12:46:44;20.40;99.90
7600;DHT22;3841;49.442;11.126;2022-08-19T12:49:11;20.40;99.90
7600;DHT22;3841;49.442;11.126;2022-08-19T12:51:37;20.40;99.90
7600;DHT22;3841;49.442;11.126;2022-08-19T12:54:05;20.50;99.90
7600;DHT22;3841;49.442;11.126;2022-08-19T12:56:32;20.40;99.90
7600;DHT22;3841;49.442;11.126;2022-08-19T12:59:00;20.40;99.90
7600;DHT22;3841;49.442;11.126;2022-08-19T13:01:27;20.40;99.90
7600;DHT22;3841;49.442;11.126;2022-08-19T13:03:58;20.30;99.90
7600;DHT22;3841;49.442;11.126;2022-08-19T13:06:24;20.30;99.90
7600;DHT22;3841;49.442;11.126;2022-08-19T13:08:51;20.20;99.90
7600;DHT22;3841;49.442;11.126;2022-08-19T13:11:20;20.20;99.90
7600;DHT22;3841;49.442;11.126;2022-08-19T13:13:50;20.20;99.90
7600;DHT22;3841;49.442;11.126;2022-08-19T13:16:17;20.20;99.90
7600;DHT22;3841;49.442;11.126;2022-08-19T13:18:44;20.10;99.90
7600;DHT22;3841;49.442;11.126;2022-08-19T13:21:11;20.10;99.90
7600;DHT22;3841;49.442;11.126;2022-08-19T13:23:38;20.00;99.90
7600;DHT22;3841;49.442;11.126;2022-08-19T13:26:06;20.10;99.90
7600;DHT22;3841;49.442;11.126;2022-08-19T13:28:35;20.20;99.90
7600;DHT22;3841;49.442;11.126;2022-08-19T13:31:19;20.20;99.90
7600;DHT22;3841;49.442;11.126;2022-08-19T13:34:04;20.20;99.90
7600;DHT22;3841;49.442;11.126;2022-08-19T13:36:31;20.10;99.90
7600;DHT22;3841;49.442;11.126;2022-08-19T13:38:58;20.10;99.90
7600;DHT22;3841;49.442;11.126;2022-08-19T13:41:25;20.10;99.90
7600;DHT22;3841;49.442;11.126;2022-08-19T13:43:54;20.20;99.90
7600;DHT22;3841;49.442;11.126;2022-08-19T13:46:20;20.20;99.90
7600;DHT22;3841;49.442;11.126;2022-08-19T13:48:47;20.00;99.90
7600;DHT22;3841;49.442;11.126;2022-08-19T13:51:14;20.00;99.90
7600;DHT22;3841;49.442;11.126;2022-08-19T13:53:41;19.90;99.90
7600;DHT22;3841;49.442;11.126;2022-08-19T13:56:09;19.80;99.90
7600;DHT22;3841;49.442;11.126;2022-08-19T13:58:36;19.80;99.90
7600;DHT22;3841;49.442;11.126;2022-08-19T14:01:05;19.70;99.90
7600;DHT22;3841;49.442;11.126;2022-08-19T14:03:33;19.80;99.90
7600;DHT22;3841;49.442;11.126;2022-08-19T14:06:00;19.70;99.90
7600;DHT22;3841;49.442;11.126;2022-08-19T14:08:27;19.70;99.90
7600;DHT22;3841;49.442;11.126;2022-08-19T14:10:54;19.60;99.90
7600;DHT22;3841;49.442;11.126;2022-08-19T14:13:22;19.50;99.90
7600;DHT22;3841;49.442;11.126;2022-08-19T14:15:58;19.50;99.90
7600;DHT22;3841;49.442;11.126;2022-08-19T14:18:27;19.40;99.90
7600;DHT22;3841;49.442;11.126;2022-08-19T14:20:53;19.40;99.90
7600;DHT22;3841;49.442;11.126;2022-08-19T14:23:21;19.40;99.90
7600;DHT22;3841;49.442;11.126;2022-08-19T14:25:48;19.40;99.90
7600;DHT22;3841;49.442;11.126;2022-08-19T14:28:15;19.30;99.90
7600;DHT22;3841;49.442;11.126;2022-08-19T14:30:43;19.20;99.90
7600;DHT22;3841;49.442;11.126;2022-08-19T14:33:16;19.10;99.90
7600;DHT22;3841;49.442;11.126;2022-08-19T14:38:34;19.00;99.90
7600;DHT22;3841;49.442;11.126;2022-08-19T14:41:11;19.00;99.90
7600;DHT22;3841;49.442;11.126;2022-08-19T14:43:38;18.90;99.90
7600;DHT22;3841;49.442;11.126;2022-08-19T14:46:05;18.90;99.90
7600;DHT22;3841;49.442;11.126;2022-08-19T14:48:33;18.80;99.90
7600;DHT22;3841;49.442;11.126;2022-08-19T14:51:01;18.70;99.90
7600;DHT22;3841;49.442;11.126;2022-08-19T14:53:28;18.70;99.90
7600;DHT22;3841;49.442;11.126;2022-08-19T14:55:57;18.70;99.90
7600;DHT22;3841;49.442;11.126;2022-08-19T14:58:26;18.70;99.90
7600;DHT22;3841;49.442;11.126;2022-08-19T15:00:53;18.70;99.90
7600;DHT22;3841;49.442;11.126;2022-08-19T15:03:20;18.70;99.90
7600;DHT22;3841;49.442;11.126;2022-08-19T15:05:47;18.70;99.90
7600;DHT22;3841;49.442;11.126;2022-08-19T15:08:14;18.80;99.90
7600;DHT22;3841;49.442;11.126;2022-08-19T15:10:40;18.80;99.90
7600;DHT22;3841;49.442;11.126;2022-08-19T15:13:08;18.80;99.90
7600;DHT22;3841;49.442;11.126;2022-08-19T15:15:35;18.80;99.90
7600;DHT22;3841;49.442;11.126;2022-08-19T15:18:02;18.80;99.90
7600;DHT22;3841;49.442;11.126;2022-08-19T15:20:30;18.80;99.90
7600;DHT22;3841;49.442;11.126;2022-08-19T15:25:28;18.80;99.90
7600;DHT22;3841;49.442;11.126;2022-08-19T15:27:55;18.80;99.90
7600;DHT22;3841;49.442;11.126;2022-08-19T15:30:23;18.80;99.90
7600;DHT22;3841;49.442;11.126;2022-08-19T15:32:50;18.90;99.90
7600;DHT22;3841;49.442;11.126;2022-08-19T15:35:20;18.90;99.90
7600;DHT22;3841;49.442;11.126;2022-08-19T15:37:47;18.90;99.90
7600;DHT22;3841;49.442;11.126;2022-08-19T15:40:14;18.90;99.90
7600;DHT22;3841;49.442;11.126;2022-08-19T15:42:41;18.90;99.90
7600;DHT22;3841;49.442;11.126;2022-08-19T15:45:09;19.00;99.90
7600;DHT22;3841;49.442;11.126;2022-08-19T15:47:37;19.00;99.90
7600;DHT22;3841;49.442;11.126;2022-08-19T15:50:05;19.10;99.90
7600;DHT22;3841;49.442;11.126;2022-08-19T15:52:31;19.20;99.90
7600;DHT22;3841;49.442;11.126;2022-08-19T15:54:58;19.20;99.90